Time;durP1;ratioP1;P1;durP2;ratioP2;P2;SDS_P1;SDS_P2;PMS_P1;PMS_P2;Temp;Humidity;BMP_temperature;BMP_pressure;BME280_temperature;BME280_humidity;BME280_pressure;Samples;Min_cycle;Max_cycle;Signal;HPM_P1;HPM_P2
2022/07/26 00:02:15;;;;;;;;;;;;;;;;;;5074007;28;19994;-75
2022/07/26 00:04:42;;;;;;;;;;;;;;;;;;5073390;28;20019;-76
2022/07/26 00:07:08;;;;;;;;;;;;;;;;;;5073369;28;20387;-75
2022/07/26 00:09:36;;;;;;;;;;;;;;;;;;5073604;28;20303;-75
2022/07/26 00:12:02;;;;;;;;;;;;;;;;;;5074260;28;20023;-76
2022/07/26 00:14:29;;;;;;;;;;;;;;;;;;5074389;28;19956;-77
2022/07/26 00:16:55;;;;;;;;;;;;;;;;;;5073956;28;19963;-76
2022/07/26 00:19:22;;;;;;;;;;;;;;;;;;5073951;28;20069;-76
2022/07/26 00:22:32;;;;;;;;;;;;;;;;;;5073859;28;19975;-76
2022/07/26 00:24:38;;;;;;;;;;;;;;;;;;5074050;28;19924;-77
2022/07/26 00:27:04;;;;;;;;;;;;;;;;;;5073588;28;20421;-75
2022/07/26 00:29:31;;;;;;;;;;;;;;;;;;5074259;28;20398;-75
2022/07/26 00:31:57;;;;;;;;;;;;;;;;;;5074234;28;19968;-76
2022/07/26 00:34:24;;;;;;;;;;;;;;;;;;5073659;28;20040;-77
2022/07/26 00:36:50;;;;;;;;;;;;;;;;;;5073852;28;19959;-77
2022/07/26 00:39:17;;;;;;;;;;;;;;;;;;5073628;28;19980;-76
2022/07/26 00:41:44;;;;;;;;;;;;;;;;;;5072625;28;19979;-76
2022/07/26 00:44:11;;;;;;;;;;;;;;;;;;5073406;28;19930;-75
2022/07/26 00:46:41;;;;;;;;;;;;;;;;;;5072945;28;19932;-75
2022/07/26 00:49:07;;;;;;;;;;;;;;;;;;5073875;28;19975;-76
2022/07/26 00:51:34;;;;;;;;;;;;;;;;;;5073102;28;19950;-74
2022/07/26 00:54:00;;;;;;;;;;;;;;;;;;5073554;28;19960;-75
2022/07/26 00:56:27;;;;;;;;;;;;;;;;;;5072613;28;20020;-75
2022/07/26 00:58:55;;;;;;;;;;;;;;;;;;5072467;28;20403;-75
2022/07/26 01:01:21;;;;;;;;;;;;;;;;;;5072762;28;20016;-74
2022/07/26 01:03:50;;;;;;;;;;;;;;;;;;5072942;28;19931;-76
2022/07/26 01:06:17;;;;;;;;;;;;;;;;;;5072577;28;19925;-75
2022/07/26 01:08:43;;;;;;;;;;;;;;;;;;5072715;28;20299;-75
2022/07/26 01:11:09;;;;;;;;;;;;;;;;;;5072556;28;20011;-75
2022/07/26 01:13:36;;;;;;;;;;;;;;;;;;5072679;28;19974;-75
2022/07/26 01:16:04;;;;;;;;;;;;;;;;;;5072622;28;19978;-74
2022/07/26 01:18:30;;;;;;;;;;;;;;;;;;5072677;28;20293;-74
2022/07/26 01:20:58;;;;;;;;;;;;;;;;;;5072646;28;20413;-74
2022/07/26 01:23:26;;;;;;;;;;;;;;;;;;5072192;28;19992;-74
2022/07/26 01:25:53;;;;;;;;;;;;;;;;;;5072017;28;19960;-74
2022/07/26 01:28:19;;;;;;;;;;;;;;;;;;5072372;28;20013;-75
2022/07/26 01:30:45;;;;;;;;;;;;;;;;;;5071911;28;20012;-75
2022/07/26 01:33:12;;;;;;;;;;;;;;;;;;5072292;28;19931;-74
2022/07/26 01:38:42;;;;;;;;;;;;;;;;;;5050944;28;19923;-74
2022/07/26 01:41:09;;;;;;;;;;;;;;;;;;5051920;28;19932;-74
2022/07/26 01:43:36;;;;;;;;;;;;;;;;;;5051770;28;19964;-76
2022/07/26 01:46:03;;;;;;;;;;;;;;;;;;5051834;28;19948;-75
2022/07/26 01:48:29;;;;;;;;;;;;;;;;;;5051771;28;19925;-75
2022/07/26 01:50:56;;;;;;;;;;;;;;;;;;5052134;28;19924;-75
2022/07/26 01:53:22;;;;;;;;;;;;;;;;;;5051965;28;20011;-74
2022/07/26 01:55:50;;;;;;;;;;;;;;;;;;5051917;28;19928;-75
2022/07/26 01:58:17;;;;;;;;;;;;;;;;;;5052052;28;20019;-74
2022/07/26 02:00:43;;;;;;;;;;;;;;;;;;5062146;28;19924;-74
2022/07/26 02:03:10;;;;;;;;;;;;;;;;;;5075756;28;20019;-73
2022/07/26 02:05:36;;;;;;;;;;;;;;;;;;5076020;28;19983;-76
2022/07/26 02:08:03;;;;;;;;;;;;;;;;;;5075383;28;19928;-76
2022/07/26 02:13:11;;;;;;;;;;;;;;;;;;5074628;28;19976;-75
2022/07/26 02:15:38;;;;;;;;;;;;;;;;;;5075616;28;19971;-76
2022/07/26 02:18:04;;;;;;;;;;;;;;;;;;5075432;28;20233;-75
2022/07/26 02:20:32;;;;;;;;;;;;;;;;;;5075258;28;20025;-76
2022/07/26 02:22:58;;;;;;;;;;;;;;;;;;5075636;28;19978;-76
2022/07/26 02:25:25;;;;;;;;;;;;;;;;;;5075574;28;19972;-76
2022/07/26 02:27:51;;;;;;;;;;;;;;;;;;5075243;28;20019;-76
2022/07/26 02:30:19;;;;;;;;;;;;;;;;;;5075364;28;20015;-76
2022/07/26 02:32:46;;;;;;;;;;;;;;;;;;5075190;28;19929;-76
2022/07/26 02:35:13;;;;;;;;;;;;;;;;;;5075234;28;20420;-76
2022/07/26 02:37:40;;;;;;;;;;;;;;;;;;5074789;28;20343;-75
2022/07/26 02:40:07;;;;;;;;;;;;;;;;;;5075231;28;20284;-76
2022/07/26 02:42:33;;;;;;;;;;;;;;;;;;5076291;28;20011;-76
2022/07/26 02:45:00;;;;;;;;;;;;;;;;;;5076610;28;20003;-75
2022/07/26 02:47:29;;;;;;;;;;;;;;;;;;5075836;28;19924;-74
2022/07/26 02:49:55;;;;;;;;;;;;;;;;;;5075737;28;20422;-76
2022/07/26 02:52:22;;;;;;;;;;;;;;;;;;5075617;28;19931;-75
2022/07/26 02:54:48;;;;;;;;;;;;;;;;;;5075050;28;19986;-75
2022/07/26 02:57:15;;;;;;;;;;;;;;;;;;5074595;28;20357;-75
2022/07/26 02:59:41;;;;;;;;;;;;;;;;;;5072640;28;20272;-75
2022/07/26 03:02:08;;;;;;;;;;;;;;;;;;5054696;28;19935;-75
2022/07/26 03:04:36;;;;;;;;;;;;;;;;;;5054935;28;19956;-75
2022/07/26 03:07:02;;;;;;;;;;;;;;;;;;5054683;28;19925;-75
2022/07/26 03:09:29;;;;;;;;;;;;;;;;;;5054521;28;19971;-75
2022/07/26 03:11:55;;;;;;;;;;;;;;;;;;5054685;28;20019;-75
2022/07/26 03:14:22;;;;;;;;;;;;;;;;;;5053510;28;19924;-75
2022/07/26 03:16:48;;;;;;;;;;;;;;;;;;5054052;28;19964;-75
2022/07/26 03:19:15;;;;;;;;;;;;;;;;;;5054310;28;19972;-74
2022/07/26 03:21:42;;;;;;;;;;;;;;;;;;5054445;28;19972;-74
2022/07/26 03:24:09;;;;;;;;;;;;;;;;;;5054423;28;19974;-74
2022/07/26 03:26:36;;;;;;;;;;;;;;;;;;5053971;28;19966;-75
2022/07/26 03:29:02;;;;;;;;;;;;;;;;;;5054185;28;20078;-75
2022/07/26 03:31:29;;;;;;;;;;;;;;;;;;5054152;28;19971;-75
2022/07/26 03:33:55;;;;;;;;;;;;;;;;;;5054047;28;19929;-75
2022/07/26 03:36:22;;;;;;;;;;;;;;;;;;5053243;28;20015;-74
2022/07/26 03:38:49;;;;;;;;;;;;;;;;;;5053568;28;19960;-74
2022/07/26 03:41:16;;;;;;;;;;;;;;;;;;5053637;28;19931;-74
2022/07/26 03:43:42;;;;;;;;;;;;;;;;;;5053279;28;19975;-75
2022/07/26 03:46:09;;;;;;;;;;;;;;;;;;5053359;28;20454;-74
2022/07/26 03:48:35;;;;;;;;;;;;;;;;;;5053711;28;19939;-74
2022/07/26 03:51:02;;;;;;;;;;;;;;;;;;5054011;28;19925;-75
2022/07/26 03:53:28;;;;;;;;;;;;;;;;;;5053770;28;20032;-74
2022/07/26 03:58:40;;;;;;;;;;;;;;;;;;5053608;28;19932;-75
2022/07/26 04:01:06;;;;;;;;;;;;;;;;;;5066797;28;20303;-75
2022/07/26 04:03:33;;;;;;;;;;;;;;;;;;5073434;28;20355;-76
2022/07/26 04:05:59;;;;;;;;;;;;;;;;;;5073380;28;20001;-75
2022/07/26 04:08:26;;;;;;;;;;;;;;;;;;5073484;28;20374;-76
2022/07/26 04:10:52;;;;;;;;;;;;;;;;;;5073221;28;20039;-74
2022/07/26 04:13:22;;;;;;;;;;;;;;;;;;5073600;28;20011;-75
2022/07/26 04:15:49;;;;;;;;;;;;;;;;;;5073599;28;20361;-75
2022/07/26 04:18:15;;;;;;;;;;;;;;;;;;5073280;28;20011;-75
2022/07/26 04:20:42;;;;;;;;;;;;;;;;;;5072820;28;19924;-76
2022/07/26 04:23:09;;;;;;;;;;;;;;;;;;5073153;28;20393;-75
2022/07/26 04:25:35;;;;;;;;;;;;;;;;;;5072890;28;20019;-75
2022/07/26 04:28:02;;;;;;;;;;;;;;;;;;5072837;28;19996;-75
2022/07/26 04:30:29;;;;;;;;;;;;;;;;;;5072778;28;19967;-75
2022/07/26 04:32:56;;;;;;;;;;;;;;;;;;5073438;28;19971;-74
2022/07/26 04:35:22;;;;;;;;;;;;;;;;;;5073217;28;20014;-75
2022/07/26 04:37:49;;;;;;;;;;;;;;;;;;5072920;28;19929;-76
2022/07/26 04:40:17;;;;;;;;;;;;;;;;;;5072496;28;20399;-76
2022/07/26 04:42:43;;;;;;;;;;;;;;;;;;5072839;28;19924;-77
2022/07/26 04:45:11;;;;;;;;;;;;;;;;;;5072934;28;19930;-76
2022/07/26 04:47:40;;;;;;;;;;;;;;;;;;5072710;28;19931;-75
2022/07/26 04:50:07;;;;;;;;;;;;;;;;;;5072902;28;20003;-76
2022/07/26 04:52:33;;;;;;;;;;;;;;;;;;5072555;28;19931;-76
2022/07/26 04:55:00;;;;;;;;;;;;;;;;;;5073206;28;19967;-77
2022/07/26 04:57:26;;;;;;;;;;;;;;;;;;5072672;28;19925;-76
2022/07/26 04:59:52;;;;;;;;;;;;;;;;;;5072643;28;20007;-75
2022/07/26 05:02:19;;;;;;;;;;;;;;;;;;5072784;28;19925;-75
2022/07/26 05:04:47;;;;;;;;;;;;;;;;;;5072395;28;19975;-73
2022/07/26 05:07:13;;;;;;;;;;;;;;;;;;5072367;28;19970;-75
2022/07/26 05:09:40;;;;;;;;;;;;;;;;;;5073085;28;20019;-77
2022/07/26 05:12:07;;;;;;;;;;;;;;;;;;5073375;28;20012;-75
2022/07/26 05:14:33;;;;;;;;;;;;;;;;;;5072845;28;19990;-74
2022/07/26 05:16:59;;;;;;;;;;;;;;;;;;5072285;28;20007;-75
2022/07/26 05:19:26;;;;;;;;;;;;;;;;;;5072368;28;20024;-73
2022/07/26 05:21:54;;;;;;;;;;;;;;;;;;5115387;22;20003;-75
2022/07/26 05:24:20;;;;;;;;;;;;;;;;;;5113538;28;20388;-74
2022/07/26 05:26:47;;;;;;;;;;;;;;;;;;5112834;28;19927;-75
2022/07/26 05:29:13;;;;;;;;;;;;;;;;;;5112925;28;20022;-75
2022/07/26 05:31:40;;;;;;;;;;;;;;;;;;5112918;28;19924;-75
2022/07/26 05:34:08;;;;;;;;;;;;;;;;;;5116086;28;19924;-76
2022/07/26 05:36:34;;;;;;;;;;;;;;;;;;5112653;28;19934;-76
2022/07/26 05:39:02;;;;;;;;;;;;;;;;;;5112763;28;19924;-75
2022/07/26 05:41:28;;;;;;;;;;;;;;;;;;5112728;28;19978;-76
2022/07/26 05:43:55;;;;;;;;;;;;;;;;;;5113037;28;19924;-76
2022/07/26 05:46:21;;;;;;;;;;;;;;;;;;5112603;28;19967;-76
2022/07/26 05:48:48;;;;;;;;;;;;;;;;;;5112823;28;19923;-75
2022/07/26 05:51:14;;;;;;;;;;;;;;;;;;5112833;28;20010;-75
2022/07/26 05:53:41;;;;;;;;;;;;;;;;;;5114025;28;20357;-76
2022/07/26 05:56:09;;;;;;;;;;;;;;;;;;5112803;28;20283;-76
2022/07/26 05:58:36;;;;;;;;;;;;;;;;;;5112928;28;19975;-76
2022/07/26 06:01:02;;;;;;;;;;;;;;;;;;5099463;28;20377;-76
2022/07/26 06:03:30;;;;;;;;;;;;;;;;;;5092261;28;20007;-76
2022/07/26 06:05:57;;;;;;;;;;;;;;;;;;5092297;28;20016;-76
2022/07/26 06:08:24;;;;;;;;;;;;;;;;;;5092432;28;19971;-76
2022/07/26 06:10:51;;;;;;;;;;;;;;;;;;5091966;28;20027;-75
2022/07/26 06:13:19;;;;;;;;;;;;;;;;;;5092142;28;19924;-76
2022/07/26 06:15:45;;;;;;;;;;;;;;;;;;5092102;28;20413;-75
2022/07/26 06:18:12;;;;;;;;;;;;;;;;;;5091594;28;20018;-75
2022/07/26 06:20:39;;;;;;;;;;;;;;;;;;5091758;28;20370;-76
2022/07/26 06:23:06;;;;;;;;;;;;;;;;;;5092445;28;19924;-76
2022/07/26 06:25:33;;;;;;;;;;;;;;;;;;5092114;28;20309;-75
2022/07/26 06:28:01;;;;;;;;;;;;;;;;;;5093614;28;19928;-76
2022/07/26 06:30:29;;;;;;;;;;;;;;;;;;5095250;28;20028;-75
2022/07/26 06:32:55;;;;;;;;;;;;;;;;;;5095024;28;19966;-76
2022/07/26 06:35:22;;;;;;;;;;;;;;;;;;5092804;28;20446;-74
2022/07/26 06:37:50;;;;;;;;;;;;;;;;;;5092098;28;19924;-75
2022/07/26 06:40:16;;;;;;;;;;;;;;;;;;5091726;28;19927;-75
2022/07/26 06:42:43;;;;;;;;;;;;;;;;;;5091832;28;19931;-76
2022/07/26 06:45:10;;;;;;;;;;;;;;;;;;5091644;28;20015;-75
2022/07/26 06:47:37;;;;;;;;;;;;;;;;;;5091478;28;19975;-75
2022/07/26 06:50:04;;;;;;;;;;;;;;;;;;5095097;28;19971;-76
2022/07/26 06:52:32;;;;;;;;;;;;;;;;;;5095415;28;20018;-75
2022/07/26 06:54:58;;;;;;;;;;;;;;;;;;5095232;28;20533;-75
2022/07/26 06:57:25;;;;;;;;;;;;;;;;;;5095004;28;19931;-75
2022/07/26 06:59:51;;;;;;;;;;;;;;;;;;5091980;28;20344;-75
2022/07/26 07:02:17;;;;;;;;;;;;;;;;;;5074918;28;19929;-75
2022/07/26 07:04:45;;;;;;;;;;;;;;;;;;5074630;28;19965;-75
2022/07/26 07:07:12;;;;;;;;;;;;;;;;;;5074706;28;20019;-75
2022/07/26 07:09:38;;;;;;;;;;;;;;;;;;5080535;28;19925;-75
2022/07/26 07:12:05;;;;;;;;;;;;;;;;;;5086012;28;20023;-75
2022/07/26 07:14:32;;;;;;;;;;;;;;;;;;5084083;28;20006;-75
2022/07/26 07:16:58;;;;;;;;;;;;;;;;;;5084995;28;19931;-75
2022/07/26 07:19:25;;;;;;;;;;;;;;;;;;5082503;28;19990;-76
2022/07/26 07:21:53;;;;;;;;;;;;;;;;;;5078781;28;19924;-75
2022/07/26 07:24:20;;;;;;;;;;;;;;;;;;5089424;28;20151;-73
2022/07/26 07:26:46;;;;;;;;;;;;;;;;;;5087694;28;20016;-75
2022/07/26 07:29:16;;;;;;;;;;;;;;;;;;5079970;28;19947;-75
2022/07/26 07:31:44;;;;;;;;;;;;;;;;;;5073478;28;19924;-75
2022/07/26 07:34:10;;;;;;;;;;;;;;;;;;5072946;28;20422;-75
2022/07/26 07:36:37;;;;;;;;;;;;;;;;;;5072141;28;20473;-76
2022/07/26 07:39:04;;;;;;;;;;;;;;;;;;5073209;28;19991;-76
2022/07/26 07:41:33;;;;;;;;;;;;;;;;;;5072598;28;20015;-76
2022/07/26 07:43:59;;;;;;;;;;;;;;;;;;5083237;28;19924;-76
2022/07/26 07:46:26;;;;;;;;;;;;;;;;;;5084311;28;20006;-76
2022/07/26 07:48:52;;;;;;;;;;;;;;;;;;5081399;28;19960;-75
2022/07/26 07:51:19;;;;;;;;;;;;;;;;;;5081425;28;19931;-75
2022/07/26 07:53:45;;;;;;;;;;;;;;;;;;5088015;28;19924;-73
2022/07/26 07:56:13;;;;;;;;;;;;;;;;;;5080717;28;20015;-75
2022/07/26 07:58:40;;;;;;;;;;;;;;;;;;5073498;28;20403;-75
2022/07/26 08:01:07;;;;;;;;;;;;;;;;;;5085387;28;19989;-75
2022/07/26 08:03:33;;;;;;;;;;;;;;;;;;5079887;28;19924;-76
2022/07/26 08:05:59;;;;;;;;;;;;;;;;;;5081501;28;20383;-74
2022/07/26 08:08:26;;;;;;;;;;;;;;;;;;5080549;28;19970;-75
2022/07/26 08:10:52;;;;;;;;;;;;;;;;;;5082827;28;20019;-75
2022/07/26 08:13:21;;;;;;;;;;;;;;;;;;5081089;28;19964;-75
2022/07/26 08:15:47;;;;;;;;;;;;;;;;;;5080466;28;20286;-75
2022/07/26 08:18:14;;;;;;;;;;;;;;;;;;5080321;28;20023;-76
2022/07/26 08:20:40;;;;;;;;;;;;;;;;;;5082729;28;20011;-75
2022/07/26 08:23:07;;;;;;;;;;;;;;;;;;5080178;28;19986;-75
2022/07/26 08:25:33;;;;;;;;;;;;;;;;;;5080088;28;19924;-75
2022/07/26 08:28:00;;;;;;;;;;;;;;;;;;5080807;28;20032;-74
2022/07/26 08:30:27;;;;;;;;;;;;;;;;;;5081664;28;19933;-75
2022/07/26 08:32:54;;;;;;;;;;;;;;;;;;5079911;28;19930;-75
2022/07/26 08:35:20;;;;;;;;;;;;;;;;;;5080648;28;20014;-75
2022/07/26 08:37:47;;;;;;;;;;;;;;;;;;5090223;28;19931;-76
2022/07/26 08:40:14;;;;;;;;;;;;;;;;;;5087847;28;20014;-75
2022/07/26 08:42:40;;;;;;;;;;;;;;;;;;5088133;28;19985;-75
2022/07/26 08:45:07;;;;;;;;;;;;;;;;;;5091173;28;20370;-75
2022/07/26 08:47:35;;;;;;;;;;;;;;;;;;5082499;28;20561;-83
2022/07/26 08:50:01;;;;;;;;;;;;;;;;;;5081356;28;19928;-80
2022/07/26 08:52:28;;;;;;;;;;;;;;;;;;5083328;28;20036;-80
2022/07/26 08:54:55;;;;;;;;;;;;;;;;;;5080750;28;19960;-75
2022/07/26 08:57:21;;;;;;;;;;;;;;;;;;5078906;28;20011;-76
2022/07/26 09:00:13;;;;;;;;;;;;;;;;;;5081596;28;19991;-76
2022/07/26 09:02:41;;;;;;;;;;;;;;;;;;5079598;28;20345;-76
2022/07/26 09:05:08;;;;;;;;;;;;;;;;;;5080477;28;19924;-75
2022/07/26 09:07:34;;;;;;;;;;;;;;;;;;5085226;28;20009;-76
2022/07/26 09:10:01;;;;;;;;;;;;;;;;;;5092213;28;20026;-76
2022/07/26 09:12:29;;;;;;;;;;;;;;;;;;5090505;28;20038;-76
2022/07/26 09:14:56;;;;;;;;;;;;;;;;;;5091288;28;19924;-76
2022/07/26 09:17:24;;;;;;;;;;;;;;;;;;5090777;28;20018;-76
2022/07/26 09:20:05;;;;;;;;;;;;;;;;;;5090901;28;19984;-75
2022/07/26 09:22:31;;;;;;;;;;;;;;;;;;5080619;28;20404;-76
2022/07/26 09:24:58;;;;;;;;;;;;;;;;;;5070307;28;19948;-75
2022/07/26 09:27:25;;;;;;;;;;;;;;;;;;5083423;28;19965;-75
2022/07/26 09:29:52;;;;;;;;;;;;;;;;;;5090465;28;19924;-76
2022/07/26 09:32:19;;;;;;;;;;;;;;;;;;5090589;28;20011;-77
2022/07/26 09:34:46;;;;;;;;;;;;;;;;;;5090580;28;19931;-76
2022/07/26 09:37:15;;;;;;;;;;;;;;;;;;5090263;28;20015;-76
2022/07/26 09:40:02;;;;;;;;;;;;;;;;;;5090725;28;20056;-76
2022/07/26 09:42:29;;;;;;;;;;;;;;;;;;5086925;28;20458;-76
2022/07/26 09:44:56;;;;;;;;;;;;;;;;;;5078895;28;20015;-76
2022/07/26 09:47:41;;;;;;;;;;;;;;;;;;5069525;28;20387;-75
2022/07/26 09:50:11;;;;;;;;;;;;;;;;;;5070335;28;19931;-76
2022/07/26 09:52:39;;;;;;;;;;;;;;;;;;5070235;28;19924;-76
2022/07/26 09:55:07;;;;;;;;;;;;;;;;;;5075143;28;19924;-75
2022/07/26 09:57:34;;;;;;;;;;;;;;;;;;5074476;28;19928;-76
2022/07/26 10:00:02;;;;;;;;;;;;;;;;;;5074532;28;19928;-77
2022/07/26 10:02:28;;;;;;;;;;;;;;;;;;5090385;28;19971;-77
2022/07/26 10:04:55;;;;;;;;;;;;;;;;;;5090672;28;19974;-77
2022/07/26 10:07:21;;;;;;;;;;;;;;;;;;5094335;28;20460;-75
2022/07/26 10:09:54;;;;;;;;;;;;;;;;;;5091342;28;19972;-75
2022/07/26 10:12:21;;;;;;;;;;;;;;;;;;5090646;28;20539;-75
2022/07/26 10:14:50;;;;;;;;;;;;;;;;;;5090174;28;20007;-76
2022/07/26 10:17:34;;;;;;;;;;;;;;;;;;5090397;28;20420;-75
2022/07/26 10:20:01;;;;;;;;;;;;;;;;;;5089905;28;19974;-75
2022/07/26 10:22:30;;;;;;;;;;;;;;;;;;5092220;28;19994;-74
2022/07/26 10:25:18;;;;;;;;;;;;;;;;;;5089800;28;20313;-74
2022/07/26 10:27:46;;;;;;;;;;;;;;;;;;5084840;28;19968;-75
2022/07/26 10:30:21;;;;;;;;;;;;;;;;;;5075420;28;19924;-73
2022/07/26 10:32:57;;;;;;;;;;;;;;;;;;5075702;28;19947;-75
2022/07/26 10:35:31;;;;;;;;;;;;;;;;;;5073807;28;19929;-75
2022/07/26 10:37:58;;;;;;;;;;;;;;;;;;5073433;28;20290;-76
2022/07/26 10:40:28;;;;;;;;;;;;;;;;;;5075741;28;19925;-75
2022/07/26 10:43:06;;;;;;;;;;;;;;;;;;5073735;28;19924;-75
2022/07/26 10:45:33;;;;;;;;;;;;;;;;;;5073401;28;19982;-74
2022/07/26 10:48:13;;;;;;;;;;;;;;;;;;5073337;28;20036;-75
2022/07/26 10:50:40;;;;;;;;;;;;;;;;;;5079767;28;19924;-74
2022/07/26 10:53:07;;;;;;;;;;;;;;;;;;5080331;28;19924;-75
2022/07/26 10:55:44;;;;;;;;;;;;;;;;;;5077995;28;19963;-75
2022/07/26 10:58:11;;;;;;;;;;;;;;;;;;5077056;28;19967;-75
2022/07/26 11:00:37;;;;;;;;;;;;;;;;;;5087814;28;19931;-75
2022/07/26 11:03:04;;;;;;;;;;;;;;;;;;5097961;28;19963;-75
2022/07/26 11:05:31;;;;;;;;;;;;;;;;;;5103158;28;19975;-75
2022/07/26 11:08:00;;;;;;;;;;;;;;;;;;5094573;28;19924;-76
2022/07/26 11:10:28;;;;;;;;;;;;;;;;;;5100052;28;19924;-76
2022/07/26 11:13:03;;;;;;;;;;;;;;;;;;5102776;28;19924;-74
2022/07/26 11:15:29;;;;;;;;;;;;;;;;;;5101403;28;19968;-76
2022/07/26 11:18:05;;;;;;;;;;;;;;;;;;5099206;28;19963;-75
2022/07/26 11:20:32;;;;;;;;;;;;;;;;;;5098601;28;20350;-75
2022/07/26 11:22:58;;;;;;;;;;;;;;;;;;5087689;22;20011;-74
2022/07/26 11:25:25;;;;;;;;;;;;;;;;;;5073002;28;19931;-75
2022/07/26 11:28:04;;;;;;;;;;;;;;;;;;5073106;28;19959;-74
2022/07/26 11:30:31;;;;;;;;;;;;;;;;;;5072774;28;19978;-74
2022/07/26 11:32:58;;;;;;;;;;;;;;;;;;5073276;28;19924;-74
2022/07/26 11:35:25;;;;;;;;;;;;;;;;;;5071588;28;20351;-74
2022/07/26 11:37:53;;;;;;;;;;;;;;;;;;5072336;28;20299;-75
2022/07/26 11:40:21;;;;;;;;;;;;;;;;;;5071806;28;19968;-75
2022/07/26 11:42:53;;;;;;;;;;;;;;;;;;5058179;28;19924;-75
2022/07/26 11:45:21;;;;;;;;;;;;;;;;;;5052191;28;19964;-74
2022/07/26 11:47:47;;;;;;;;;;;;;;;;;;5052251;28;20388;-75
2022/07/26 11:50:14;;;;;;;;;;;;;;;;;;5052331;28;20391;-75
2022/07/26 11:52:40;;;;;;;;;;;;;;;;;;5052486;28;20019;-75
2022/07/26 11:55:07;;;;;;;;;;;;;;;;;;5052045;28;19925;-75
2022/07/26 11:57:34;;;;;;;;;;;;;;;;;;5051692;28;19936;-76
2022/07/26 12:00:01;;;;;;;;;;;;;;;;;;5052344;28;19975;-74
2022/07/26 12:02:30;;;;;;;;;;;;;;;;;;5052062;28;20452;-75
2022/07/26 12:05:11;;;;;;;;;;;;;;;;;;5052224;28;20011;-74
2022/07/26 12:07:37;;;;;;;;;;;;;;;;;;5052473;28;19975;-75
2022/07/26 12:10:04;;;;;;;;;;;;;;;;;;5052569;28;19975;-76
2022/07/26 12:12:31;;;;;;;;;;;;;;;;;;5052060;28;20425;-76
2022/07/26 12:14:59;;;;;;;;;;;;;;;;;;5051703;28;19925;-74
2022/07/26 12:17:25;;;;;;;;;;;;;;;;;;5054302;28;20409;-77
2022/07/26 12:19:53;;;;;;;;;;;;;;;;;;5072680;28;19964;-79
2022/07/26 12:22:20;;;;;;;;;;;;;;;;;;5073326;28;20008;-76
2022/07/26 12:24:54;;;;;;;;;;;;;;;;;;5070420;28;19924;-77
2022/07/26 12:27:22;;;;;;;;;;;;;;;;;;5066990;28;20456;-76
2022/07/26 12:29:49;;;;;;;;;;;;;;;;;;5070436;28;19952;-76
2022/07/26 12:32:18;;;;;;;;;;;;;;;;;;5059795;28;19964;-76
2022/07/26 12:34:56;;;;;;;;;;;;;;;;;;5055967;28;20011;-77
2022/07/26 12:37:23;;;;;;;;;;;;;;;;;;5062016;28;19986;-78
2022/07/26 12:40:05;;;;;;;;;;;;;;;;;;5071630;28;19955;-76
2022/07/26 12:42:32;;;;;;;;;;;;;;;;;;5071537;28;19931;-76
2022/07/26 12:44:59;;;;;;;;;;;;;;;;;;5071783;28;19946;-76
2022/07/26 12:47:26;;;;;;;;;;;;;;;;;;5071014;28;20007;-76
2022/07/26 12:49:52;;;;;;;;;;;;;;;;;;5071118;28;20474;-77
2022/07/26 12:52:21;;;;;;;;;;;;;;;;;;5071275;28;19928;-76
2022/07/26 12:54:49;;;;;;;;;;;;;;;;;;5070924;28;19925;-76
2022/07/26 12:57:15;;;;;;;;;;;;;;;;;;5070791;28;20538;-76
2022/07/26 12:59:42;;;;;;;;;;;;;;;;;;5070672;28;19929;-75
2022/07/26 13:02:09;;;;;;;;;;;;;;;;;;5070603;28;19928;-75
2022/07/26 13:04:36;;;;;;;;;;;;;;;;;;5070690;28;19960;-75
2022/07/26 13:07:03;;;;;;;;;;;;;;;;;;5071221;28;19925;-75
2022/07/26 13:09:32;;;;;;;;;;;;;;;;;;5070444;28;19972;-75
2022/07/26 13:11:58;;;;;;;;;;;;;;;;;;5071925;28;19928;-75
2022/07/26 13:14:25;;;;;;;;;;;;;;;;;;5072246;28;20017;-75
2022/07/26 13:16:51;;;;;;;;;;;;;;;;;;5071052;28;20003;-77
2022/07/26 13:19:18;;;;;;;;;;;;;;;;;;5071611;28;20401;-76
2022/07/26 13:21:44;;;;;;;;;;;;;;;;;;5072667;28;20414;-76
2022/07/26 13:24:11;;;;;;;;;;;;;;;;;;5070911;28;20380;-75
2022/07/26 13:26:39;;;;;;;;;;;;;;;;;;5070361;28;19931;-74
2022/07/26 13:29:05;;;;;;;;;;;;;;;;;;5070791;28;19931;-75
2022/07/26 13:31:32;;;;;;;;;;;;;;;;;;5051188;28;19967;-74
2022/07/26 13:34:00;;;;;;;;;;;;;;;;;;5051467;28;20399;-75
2022/07/26 13:36:27;;;;;;;;;;;;;;;;;;5051506;28;19925;-76
2022/07/26 13:38:54;;;;;;;;;;;;;;;;;;5055951;28;19951;-76
2022/07/26 13:41:20;;;;;;;;;;;;;;;;;;5053542;28;19929;-76
2022/07/26 13:43:49;;;;;;;;;;;;;;;;;;5065303;28;19969;-77
2022/07/26 13:46:16;;;;;;;;;;;;;;;;;;5071368;28;19925;-77
2022/07/26 13:48:43;;;;;;;;;;;;;;;;;;5070606;28;19925;-75
2022/07/26 13:51:10;;;;;;;;;;;;;;;;;;5056227;28;20693;-74
2022/07/26 13:53:36;;;;;;;;;;;;;;;;;;5050137;28;19963;-74
2022/07/26 13:56:03;;;;;;;;;;;;;;;;;;5049694;28;19925;-75
2022/07/26 13:58:31;;;;;;;;;;;;;;;;;;5052938;28;19975;-75
2022/07/26 14:00:59;;;;;;;;;;;;;;;;;;5060152;28;19982;-76
2022/07/26 14:03:25;;;;;;;;;;;;;;;;;;5062839;28;20019;-76
2022/07/26 14:05:52;;;;;;;;;;;;;;;;;;5057795;28;20023;-77
2022/07/26 14:08:18;;;;;;;;;;;;;;;;;;5053996;28;19925;-77
2022/07/26 14:10:45;;;;;;;;;;;;;;;;;;5061824;28;20023;-76
2022/07/26 14:13:11;;;;;;;;;;;;;;;;;;5074114;28;20409;-75
2022/07/26 14:15:37;;;;;;;;;;;;;;;;;;5071071;28;20024;-75
2022/07/26 14:18:05;;;;;;;;;;;;;;;;;;5059573;28;19960;-76
2022/07/26 14:20:32;;;;;;;;;;;;;;;;;;5054361;28;20023;-75
2022/07/26 14:22:58;;;;;;;;;;;;;;;;;;5053908;28;20011;-75
2022/07/26 14:25:25;;;;;;;;;;;;;;;;;;5058855;28;20361;-74
2022/07/26 14:27:52;;;;;;;;;;;;;;;;;;5056122;28;20466;-74
2022/07/26 14:30:19;;;;;;;;;;;;;;;;;;5063074;28;19925;-75
2022/07/26 14:32:46;;;;;;;;;;;;;;;;;;5074000;28;20027;-76
2022/07/26 14:35:15;;;;;;;;;;;;;;;;;;5073301;28;19925;-75
2022/07/26 14:37:42;;;;;;;;;;;;;;;;;;5073332;28;20412;-78
2022/07/26 14:40:09;;;;;;;;;;;;;;;;;;5073535;28;19924;-75
2022/07/26 14:42:35;;;;;;;;;;;;;;;;;;5070493;28;19925;-75
2022/07/26 14:45:02;;;;;;;;;;;;;;;;;;5062142;28;20027;-75
2022/07/26 14:47:28;;;;;;;;;;;;;;;;;;5072365;28;19924;-76
2022/07/26 14:49:55;;;;;;;;;;;;;;;;;;5073522;28;20037;-76
2022/07/26 14:52:22;;;;;;;;;;;;;;;;;;5073273;28;20023;-75
2022/07/26 14:54:49;;;;;;;;;;;;;;;;;;5077964;28;19924;-74
2022/07/26 14:57:15;;;;;;;;;;;;;;;;;;5092340;28;20445;-76
2022/07/26 14:59:42;;;;;;;;;;;;;;;;;;5064518;28;20019;-76
2022/07/26 15:02:09;;;;;;;;;;;;;;;;;;5061942;28;20011;-76
2022/07/26 15:04:36;;;;;;;;;;;;;;;;;;5059843;28;19925;-76
2022/07/26 15:07:02;;;;;;;;;;;;;;;;;;5060250;28;20010;-75
2022/07/26 15:09:30;;;;;;;;;;;;;;;;;;5070025;28;20128;-74
2022/07/26 15:11:57;;;;;;;;;;;;;;;;;;5065462;28;20007;-75
2022/07/26 15:14:24;;;;;;;;;;;;;;;;;;5071518;28;19974;-75
2022/07/26 15:16:50;;;;;;;;;;;;;;;;;;5074753;28;19974;-75
2022/07/26 15:19:17;;;;;;;;;;;;;;;;;;5076185;28;19976;-75
2022/07/26 15:21:43;;;;;;;;;;;;;;;;;;5076617;28;19964;-75
2022/07/26 15:24:12;;;;;;;;;;;;;;;;;;5072076;28;20007;-74
2022/07/26 15:26:40;;;;;;;;;;;;;;;;;;5068503;28;19935;-74
2022/07/26 15:29:07;;;;;;;;;;;;;;;;;;5069155;28;19925;-75
2022/07/26 15:31:34;;;;;;;;;;;;;;;;;;5066867;28;19924;-75
2022/07/26 15:34:00;;;;;;;;;;;;;;;;;;5075150;28;19975;-77
2022/07/26 15:36:26;;;;;;;;;;;;;;;;;;5070594;28;19978;-76
2022/07/26 15:38:53;;;;;;;;;;;;;;;;;;5068248;28;19924;-74
2022/07/26 15:41:19;;;;;;;;;;;;;;;;;;5067774;28;19955;-76
2022/07/26 15:43:48;;;;;;;;;;;;;;;;;;5070753;28;19924;-76
2022/07/26 15:46:14;;;;;;;;;;;;;;;;;;5076218;28;19964;-76
2022/07/26 15:48:41;;;;;;;;;;;;;;;;;;5072095;28;19924;-76
2022/07/26 15:51:07;;;;;;;;;;;;;;;;;;5061931;28;19971;-76
2022/07/26 15:53:34;;;;;;;;;;;;;;;;;;5064357;28;20007;-76
2022/07/26 15:56:01;;;;;;;;;;;;;;;;;;5065824;28;19925;-75
2022/07/26 15:58:28;;;;;;;;;;;;;;;;;;5075836;28;20383;-76
2022/07/26 16:00:56;;;;;;;;;;;;;;;;;;5066765;28;19944;-75
2022/07/26 16:03:23;;;;;;;;;;;;;;;;;;5062758;28;20016;-75
2022/07/26 16:05:49;;;;;;;;;;;;;;;;;;5063943;28;19929;-75
2022/07/26 16:08:16;;;;;;;;;;;;;;;;;;5062121;28;19925;-75
2022/07/26 16:10:42;;;;;;;;;;;;;;;;;;5071802;28;19974;-74
2022/07/26 16:13:09;;;;;;;;;;;;;;;;;;5064563;28;19967;-75
2022/07/26 16:15:35;;;;;;;;;;;;;;;;;;5060273;28;20123;-76
2022/07/26 16:18:04;;;;;;;;;;;;;;;;;;5060001;28;20011;-76
2022/07/26 16:20:30;;;;;;;;;;;;;;;;;;5074517;28;19924;-76
2022/07/26 16:22:57;;;;;;;;;;;;;;;;;;5079505;28;19978;-76
2022/07/26 16:25:23;;;;;;;;;;;;;;;;;;5071604;28;19925;-78
2022/07/26 16:27:52;;;;;;;;;;;;;;;;;;5064096;28;19925;-74
2022/07/26 16:30:18;;;;;;;;;;;;;;;;;;5077823;28;19924;-76
2022/07/26 16:32:45;;;;;;;;;;;;;;;;;;5076605;28;19983;-75
2022/07/26 16:35:13;;;;;;;;;;;;;;;;;;5072273;28;19974;-75
2022/07/26 16:37:40;;;;;;;;;;;;;;;;;;5069516;28;19978;-75
2022/07/26 16:40:07;;;;;;;;;;;;;;;;;;5075297;28;19934;-75
2022/07/26 16:42:33;;;;;;;;;;;;;;;;;;5076616;28;19946;-76
2022/07/26 16:45:00;;;;;;;;;;;;;;;;;;5075151;28;19924;-76
2022/07/26 16:47:26;;;;;;;;;;;;;;;;;;5071918;28;19983;-77
2022/07/26 16:49:53;;;;;;;;;;;;;;;;;;5070323;28;20018;-77
2022/07/26 16:52:21;;;;;;;;;;;;;;;;;;5071747;28;20350;-76
2022/07/26 16:54:48;;;;;;;;;;;;;;;;;;5057573;28;19931;-76
2022/07/26 16:57:14;;;;;;;;;;;;;;;;;;5052514;28;20432;-76